createdAt,value
2023-03-27T00:01:36.467Z,1.80
2023-03-27T00:04:05.479Z,1.77
2023-03-27T00:06:34.509Z,1.87
2023-03-27T00:09:03.614Z,2.23
2023-03-27T00:11:33.185Z,2.13
2023-03-27T00:14:01.429Z,1.90
2023-03-27T00:16:30.447Z,2.00
2023-03-27T00:18:58.760Z,1.87
2023-03-27T00:21:26.976Z,2.10
2023-03-27T00:23:56.495Z,2.10
2023-03-27T00:26:24.866Z,2.20
2023-03-27T00:28:54.768Z,2.27
2023-03-27T00:31:23.163Z,1.93
2023-03-27T00:33:51.560Z,1.90
2023-03-27T00:36:19.819Z,1.77
2023-03-27T00:38:48.016Z,1.93
2023-03-27T00:41:16.517Z,1.73
2023-03-27T00:43:44.909Z,2.10
2023-03-27T00:46:24.212Z,2.27
2023-03-27T00:48:53.946Z,2.00
2023-03-27T00:51:23.845Z,2.30
2023-03-27T00:53:52.813Z,1.80
2023-03-27T00:56:21.784Z,1.63
2023-03-27T00:58:51.458Z,2.20
2023-03-27T01:01:21.110Z,2.07
2023-03-27T01:03:51.554Z,2.77
2023-03-27T01:06:20.535Z,2.07
2023-03-27T01:08:49.118Z,2.23
2023-03-27T01:11:21.865Z,2.27
2023-03-27T01:13:55.640Z,2.20
2023-03-27T01:16:26.041Z,1.90
2023-03-27T01:19:00.904Z,2.17
2023-03-27T01:21:47.694Z,1.80
2023-03-27T01:24:27.181Z,2.20
2023-03-27T01:27:07.474Z,2.63
2023-03-27T01:29:43.576Z,2.40
2023-03-27T01:32:25.904Z,1.90
2023-03-27T01:35:03.439Z,2.03
2023-03-27T01:37:37.658Z,2.57
2023-03-27T01:40:08.560Z,2.10
2023-03-27T01:42:38.759Z,2.13
2023-03-27T01:45:09.902Z,2.43
2023-03-27T01:47:42.161Z,2.33
2023-03-27T01:50:15.382Z,2.03
2023-03-27T01:52:45.940Z,1.80
2023-03-27T01:55:19.426Z,2.00
2023-03-27T01:57:50.530Z,2.13
2023-03-27T02:00:22.148Z,1.90
2023-03-27T02:02:53.372Z,2.00
2023-03-27T02:05:24.175Z,1.90
2023-03-27T02:07:54.903Z,2.10
2023-03-27T02:10:25.999Z,2.30
2023-03-27T02:12:57.495Z,1.93
2023-03-27T02:15:29.154Z,1.73
2023-03-27T02:18:04.676Z,2.00
2023-03-27T02:20:33.482Z,2.10
2023-03-27T02:23:01.894Z,3.03
2023-03-27T02:25:32.603Z,2.00
2023-03-27T02:28:06.489Z,2.03
2023-03-27T02:30:37.555Z,2.10
2023-03-27T02:33:08.916Z,2.03
2023-03-27T02:35:40.963Z,1.90
2023-03-27T02:38:11.619Z,2.23
2023-03-27T02:40:47.000Z,2.10
2023-03-27T02:43:17.778Z,1.77
2023-03-27T02:45:51.135Z,1.57
2023-03-27T02:48:22.116Z,2.27
2023-03-27T02:50:52.072Z,1.73
2023-03-27T02:53:22.593Z,2.00
2023-03-27T02:55:54.770Z,1.97
2023-03-27T02:58:30.598Z,2.20
2023-03-27T03:00:59.829Z,2.00
2023-03-27T03:03:32.054Z,1.70
2023-03-27T03:06:00.537Z,1.80
2023-03-27T03:08:30.304Z,1.90
2023-03-27T03:11:03.763Z,2.23
2023-03-27T03:13:31.998Z,1.93
2023-03-27T03:16:00.529Z,1.90
2023-03-27T03:18:28.677Z,2.10
2023-03-27T03:20:56.956Z,2.57
2023-03-27T03:23:25.613Z,2.63
2023-03-27T03:25:56.673Z,2.10
2023-03-27T03:28:26.839Z,2.27
2023-03-27T03:30:55.146Z,1.80
2023-03-27T03:33:25.865Z,2.73
2023-03-27T03:35:54.052Z,2.37
2023-03-27T03:38:25.084Z,2.07
2023-03-27T03:40:55.105Z,1.70
2023-03-27T03:43:23.677Z,1.80
2023-03-27T03:45:53.537Z,2.20
2023-03-27T03:48:22.216Z,1.77
2023-03-27T03:50:50.920Z,1.77
2023-03-27T03:53:19.763Z,1.80
2023-03-27T03:55:48.104Z,2.10
2023-03-27T03:58:16.417Z,1.80
2023-03-27T04:00:44.686Z,2.00
2023-03-27T04:03:15.480Z,1.80
2023-03-27T04:05:43.854Z,1.50
2023-03-27T04:08:12.350Z,1.97
2023-03-27T04:10:41.453Z,2.47
2023-03-27T04:13:09.656Z,1.73
2023-03-27T04:15:37.885Z,1.87
2023-03-27T04:18:06.355Z,2.07
2023-03-27T04:20:36.866Z,1.60
2023-03-27T04:23:05.040Z,2.30
2023-03-27T04:25:33.233Z,2.13
2023-03-27T04:28:02.199Z,1.70
2023-03-27T04:30:30.415Z,1.80
2023-03-27T04:32:59.901Z,2.03
2023-03-27T04:35:28.569Z,1.60
2023-03-27T04:37:58.069Z,2.00
2023-03-27T04:40:26.278Z,2.03
2023-03-27T04:42:55.862Z,2.13
2023-03-27T04:45:25.563Z,1.70
2023-03-27T04:47:54.406Z,2.50
2023-03-27T04:50:22.765Z,2.10
2023-03-27T04:52:51.841Z,2.07
2023-03-27T04:55:25.720Z,2.63
2023-03-27T04:57:53.911Z,2.07
2023-03-27T05:00:23.766Z,1.93
2023-03-27T05:02:54.614Z,1.77
2023-03-27T05:05:22.952Z,1.80
2023-03-27T05:07:51.498Z,2.53
2023-03-27T05:10:21.921Z,1.87
2023-03-27T05:12:51.188Z,1.70
2023-03-27T05:15:19.656Z,1.93
2023-03-27T05:17:52.941Z,1.97
2023-03-27T05:20:22.135Z,2.73
2023-03-27T05:22:50.621Z,2.17
2023-03-27T05:25:18.931Z,2.70
2023-03-27T05:27:48.897Z,2.37
2023-03-27T05:30:17.727Z,1.90
2023-03-27T05:32:48.262Z,2.37
2023-03-27T05:35:18.076Z,1.77
2023-03-27T05:37:48.672Z,1.90
2023-03-27T05:40:17.367Z,1.87
2023-03-27T05:42:46.045Z,2.07
2023-03-27T05:45:16.265Z,2.57
2023-03-27T05:47:45.821Z,1.80
2023-03-27T05:50:14.248Z,1.97
2023-03-27T05:52:42.518Z,2.13
2023-03-27T05:55:11.576Z,2.47
2023-03-27T05:57:40.305Z,2.10
2023-03-27T06:00:11.629Z,2.07
2023-03-27T06:02:43.160Z,2.37
2023-03-27T06:05:12.817Z,2.30
2023-03-27T06:07:43.111Z,2.27
2023-03-27T06:10:13.532Z,2.40
2023-03-27T06:12:43.244Z,2.80
2023-03-27T06:15:12.058Z,2.10
2023-03-27T06:17:42.396Z,2.10
2023-03-27T06:20:12.928Z,2.37
2023-03-27T06:22:43.986Z,2.67
2023-03-27T06:25:12.163Z,2.10
2023-03-27T06:27:40.356Z,2.50
2023-03-27T06:30:09.441Z,2.40
2023-03-27T06:32:37.612Z,2.40
2023-03-27T06:35:08.274Z,2.73
2023-03-27T06:37:36.942Z,2.20
2023-03-27T06:40:09.639Z,2.33
2023-03-27T06:42:38.175Z,2.20
2023-03-27T06:45:06.689Z,2.30
2023-03-27T06:47:44.774Z,2.20
2023-03-27T06:50:21.862Z,1.80
2023-03-27T06:52:50.167Z,2.23
2023-03-27T06:55:19.123Z,2.00
2023-03-27T06:57:48.013Z,1.83
2023-03-27T07:00:19.428Z,1.90
2023-03-27T07:02:47.936Z,1.87
2023-03-27T07:05:16.681Z,1.77
2023-03-27T07:07:48.692Z,2.03
2023-03-27T07:10:17.877Z,2.07
2023-03-27T07:12:49.357Z,2.00
2023-03-27T07:15:17.812Z,1.87
2023-03-27T07:17:48.917Z,1.73
2023-03-27T07:20:17.552Z,1.87
2023-03-27T07:22:47.086Z,2.33
2023-03-27T07:25:15.506Z,2.20
2023-03-27T07:27:44.100Z,1.87
2023-03-27T07:30:13.222Z,2.00
2023-03-27T07:32:41.899Z,2.27
2023-03-27T07:35:10.790Z,1.83
2023-03-27T07:37:39.006Z,2.43
2023-03-27T07:40:13.137Z,1.93
2023-03-27T07:42:44.854Z,2.30
2023-03-27T07:45:14.098Z,2.30
2023-03-27T07:47:42.699Z,1.83
2023-03-27T07:50:11.556Z,1.97
2023-03-27T07:52:43.484Z,2.67
2023-03-27T07:55:14.185Z,2.30
2023-03-27T07:57:57.978Z,2.20
2023-03-27T08:00:28.433Z,2.10
2023-03-27T08:03:06.790Z,1.80
2023-03-27T08:05:35.340Z,2.40
2023-03-27T08:08:03.612Z,1.60
2023-03-27T08:10:33.116Z,2.10
2023-03-27T08:13:01.322Z,1.97
2023-03-27T08:15:29.525Z,2.00
2023-03-27T08:18:00.288Z,1.83
2023-03-27T08:20:30.238Z,1.80
2023-03-27T08:22:58.459Z,2.00
2023-03-27T08:25:27.752Z,1.90
2023-03-27T08:27:57.289Z,1.80
2023-03-27T08:30:25.451Z,1.80
2023-03-27T08:32:53.671Z,2.00
2023-03-27T08:35:21.919Z,1.90
2023-03-27T08:37:50.118Z,1.80
2023-03-27T08:40:25.941Z,1.80
2023-03-27T08:42:55.169Z,1.10
2023-03-27T08:45:27.433Z,1.83
2023-03-27T08:47:58.157Z,1.70
2023-03-27T08:50:37.910Z,1.90
2023-03-27T08:53:09.009Z,1.60
2023-03-27T08:55:41.458Z,1.63
2023-03-27T08:58:15.442Z,1.70
2023-03-27T09:00:44.978Z,1.50
2023-03-27T09:03:16.497Z,1.30
2023-03-27T09:05:46.866Z,1.47
2023-03-27T09:08:18.121Z,1.70
2023-03-27T09:10:49.143Z,1.67
2023-03-27T09:13:20.512Z,1.67
2023-03-27T09:15:54.011Z,1.40
2023-03-27T09:18:24.031Z,1.50
2023-03-27T09:20:56.189Z,1.70
2023-03-27T09:23:27.905Z,1.63
2023-03-27T09:25:58.180Z,1.40
2023-03-27T09:28:28.416Z,1.50
2023-03-27T09:30:59.894Z,1.60
2023-03-27T09:33:28.140Z,1.67
2023-03-27T09:35:56.805Z,1.70
2023-03-27T09:38:31.161Z,1.60
2023-03-27T09:41:00.898Z,1.80
2023-03-27T09:43:31.610Z,3.20
2023-03-27T09:46:01.600Z,1.80
2023-03-27T09:48:32.884Z,1.70
2023-03-27T09:51:02.380Z,1.67
2023-03-27T09:53:30.573Z,1.30
2023-03-27T09:56:02.989Z,1.43
2023-03-27T09:58:33.406Z,1.70
2023-03-27T10:01:10.368Z,1.60
2023-03-27T10:03:40.311Z,1.90
2023-03-27T10:06:09.010Z,1.83
2023-03-27T10:08:39.260Z,1.50
2023-03-27T10:11:08.951Z,1.53
2023-03-27T10:13:37.184Z,1.50
2023-03-27T10:16:06.996Z,1.70
2023-03-27T10:18:43.336Z,1.40
2023-03-27T10:21:13.243Z,1.20
2023-03-27T10:23:43.895Z,1.40
2023-03-27T10:26:13.550Z,1.43
2023-03-27T10:28:45.340Z,1.50
2023-03-27T10:31:26.283Z,1.63
2023-03-27T10:33:56.612Z,2.20
2023-03-27T10:36:25.945Z,1.70
2023-03-27T10:38:57.204Z,1.50
2023-03-27T10:41:28.555Z,1.40
2023-03-27T10:43:58.491Z,1.43
2023-03-27T10:46:27.872Z,1.43
2023-03-27T10:49:01.918Z,1.30
2023-03-27T10:51:45.365Z,1.43
2023-03-27T10:54:17.858Z,1.30
2023-03-27T10:56:51.571Z,1.43
2023-03-27T10:59:30.975Z,1.03
2023-03-27T11:02:04.248Z,0.93
2023-03-27T11:04:39.833Z,0.83
2023-03-27T11:07:11.361Z,0.90
2023-03-27T11:09:42.828Z,1.07
2023-03-27T11:12:13.213Z,1.20
2023-03-27T11:14:47.355Z,1.20
2023-03-27T11:17:18.006Z,1.20
2023-03-27T11:19:52.133Z,1.13
2023-03-27T11:22:24.145Z,1.17
2023-03-27T11:24:54.414Z,1.17
2023-03-27T11:27:27.975Z,1.13
2023-03-27T11:29:59.909Z,1.57
2023-03-27T11:32:31.106Z,1.13
2023-03-27T11:35:04.282Z,0.97
2023-03-27T11:37:39.575Z,1.40
2023-03-27T11:40:12.952Z,1.40
2023-03-27T11:42:43.140Z,1.37
2023-03-27T11:45:13.170Z,1.97
2023-03-27T11:47:55.692Z,1.20
2023-03-27T11:50:33.130Z,1.80
2023-03-27T11:53:10.005Z,1.40
2023-03-27T11:55:40.998Z,1.53
2023-03-27T11:58:17.199Z,1.20
2023-03-27T12:00:50.000Z,1.10
2023-03-27T12:03:32.526Z,1.00
2023-03-27T12:06:10.228Z,1.40
2023-03-27T12:08:46.001Z,1.27
2023-03-27T12:11:14.321Z,0.97
2023-03-27T12:13:58.220Z,1.10
2023-03-27T12:16:44.144Z,1.30
2023-03-27T12:19:28.391Z,1.00
2023-03-27T12:22:09.263Z,1.10
2023-03-27T12:24:57.191Z,1.20
2023-03-27T12:27:32.649Z,1.30
2023-03-27T12:30:09.965Z,1.13
2023-03-27T12:33:00.325Z,1.20
2023-03-27T12:35:29.885Z,1.50
2023-03-27T12:38:01.460Z,1.00
2023-03-27T12:40:31.917Z,1.47
2023-03-27T12:43:08.301Z,1.47
2023-03-27T12:45:44.131Z,1.50
2023-03-27T12:48:20.965Z,1.43
2023-03-27T12:50:56.681Z,1.40
2023-03-27T12:53:43.027Z,1.30
2023-03-27T12:56:32.075Z,1.17
2023-03-27T12:59:00.377Z,1.07
2023-03-27T13:01:45.510Z,1.50
2023-03-27T13:04:31.893Z,1.20
2023-03-27T13:07:05.026Z,1.50
2023-03-27T13:09:42.982Z,1.20
2023-03-27T13:12:20.475Z,1.00
2023-03-27T13:14:56.843Z,1.80
2023-03-27T13:17:41.592Z,0.90
2023-03-27T13:20:17.359Z,1.10
2023-03-27T13:23:03.228Z,1.20
2023-03-27T13:25:35.782Z,1.20
2023-03-27T13:28:19.612Z,1.07
2023-03-27T13:30:49.241Z,1.70
2023-03-27T13:33:18.308Z,1.30
2023-03-27T13:35:53.884Z,0.97
2023-03-27T13:38:36.921Z,1.30
2023-03-27T13:41:20.034Z,1.13
2023-03-27T13:43:49.893Z,1.00
2023-03-27T13:46:19.184Z,1.63
2023-03-27T13:49:04.610Z,1.10
2023-03-27T13:51:51.656Z,1.20
2023-03-27T13:54:44.319Z,1.30
2023-03-27T13:57:17.426Z,1.20
2023-03-27T13:59:59.826Z,1.30
2023-03-27T14:02:39.753Z,0.97
2023-03-27T14:05:15.238Z,1.30
2023-03-27T14:08:02.133Z,1.20
2023-03-27T14:10:39.098Z,2.17
2023-03-27T14:13:16.692Z,1.30
2023-03-27T14:15:56.685Z,1.43
2023-03-27T14:18:32.494Z,1.37
2023-03-27T14:21:02.276Z,1.40
2023-03-27T14:23:32.431Z,1.23
2023-03-27T14:26:03.367Z,1.30
2023-03-27T14:28:32.832Z,1.33
2023-03-27T14:31:05.923Z,1.13
2023-03-27T14:33:34.558Z,1.10
2023-03-27T14:36:05.473Z,1.27
2023-03-27T14:38:34.442Z,1.00
2023-03-27T14:41:03.306Z,1.00
2023-03-27T14:43:31.753Z,1.00
2023-03-27T14:46:02.109Z,1.30
2023-03-27T14:48:34.402Z,1.10
2023-03-27T14:51:04.433Z,1.10
2023-03-27T14:53:36.276Z,0.90
2023-03-27T14:56:12.837Z,0.83
2023-03-27T14:58:43.488Z,1.20
2023-03-27T15:01:17.099Z,1.07
2023-03-27T15:03:47.444Z,1.30
2023-03-27T15:06:16.906Z,1.03
2023-03-27T15:08:49.813Z,1.07
2023-03-27T15:11:19.218Z,1.17
2023-03-27T15:13:48.234Z,1.10
2023-03-27T15:16:18.146Z,1.20
2023-03-27T15:18:52.959Z,1.17
2023-03-27T15:21:38.840Z,0.83
2023-03-27T15:24:10.421Z,0.80
2023-03-27T15:26:39.116Z,0.90
2023-03-27T15:29:13.748Z,1.00
2023-03-27T15:31:43.913Z,1.10
2023-03-27T15:34:16.614Z,0.83
2023-03-27T15:36:46.575Z,1.10
2023-03-27T15:39:21.503Z,0.93
2023-03-27T15:41:52.196Z,1.10
2023-03-27T15:44:22.061Z,1.20
2023-03-27T15:46:52.072Z,1.30
2023-03-27T15:49:23.056Z,1.00
2023-03-27T15:51:51.527Z,1.23
2023-03-27T15:54:35.553Z,1.20
2023-03-27T15:57:09.354Z,1.30
2023-03-27T15:59:52.506Z,1.27
2023-03-27T16:02:22.682Z,1.40
2023-03-27T16:04:54.999Z,1.10
2023-03-27T16:07:25.006Z,1.10
2023-03-27T16:09:55.028Z,1.17
2023-03-27T16:12:25.734Z,1.27
2023-03-27T16:14:57.075Z,1.30
2023-03-27T16:17:32.324Z,1.10
2023-03-27T16:20:07.218Z,1.30
2023-03-27T16:22:36.464Z,1.07
2023-03-27T16:25:05.446Z,1.10
2023-03-27T16:27:34.705Z,1.30
2023-03-27T16:30:02.905Z,1.30
2023-03-27T16:32:31.579Z,1.10
2023-03-27T16:34:59.793Z,1.10
2023-03-27T16:37:29.361Z,1.53
2023-03-27T16:39:57.974Z,1.00
2023-03-27T16:42:26.604Z,1.30
2023-03-27T16:44:54.873Z,1.10
2023-03-27T16:47:24.675Z,1.10
2023-03-27T16:50:09.927Z,1.03
2023-03-27T16:52:40.728Z,1.60
2023-03-27T16:55:09.544Z,1.20
2023-03-27T16:57:37.747Z,1.17
2023-03-27T17:00:06.810Z,0.80
2023-03-27T17:02:36.336Z,1.40
2023-03-27T17:05:04.956Z,1.23
2023-03-27T17:07:33.155Z,1.23
2023-03-27T17:10:03.364Z,1.40
2023-03-27T17:12:32.184Z,1.10
2023-03-27T17:15:00.432Z,1.10
2023-03-27T17:17:30.274Z,1.07
2023-03-27T17:19:58.598Z,1.30
2023-03-27T17:22:29.607Z,1.37
2023-03-27T17:25:00.954Z,1.03
2023-03-27T17:27:30.562Z,1.07
2023-03-27T17:29:58.853Z,1.10
2023-03-27T17:32:27.616Z,1.70
2023-03-27T17:34:55.923Z,1.50
2023-03-27T17:37:25.865Z,1.10
2023-03-27T17:39:54.023Z,1.03
2023-03-27T17:42:22.215Z,1.20
2023-03-27T17:44:51.723Z,1.23
2023-03-27T17:47:19.880Z,1.23
2023-03-27T17:49:48.064Z,1.50
2023-03-27T17:52:16.241Z,1.50
2023-03-27T17:54:44.405Z,1.53
2023-03-27T17:57:12.665Z,1.30
2023-03-27T17:59:40.904Z,1.90
2023-03-27T18:02:16.830Z,1.57
2023-03-27T18:04:45.213Z,2.23
2023-03-27T18:07:13.398Z,1.87
2023-03-27T18:09:41.550Z,1.50
2023-03-27T18:12:09.726Z,1.43
2023-03-27T18:14:38.114Z,1.23
2023-03-27T18:17:06.639Z,1.20
2023-03-27T18:19:36.235Z,1.40
2023-03-27T18:22:05.058Z,1.90
2023-03-27T18:24:33.236Z,0.97
2023-03-27T18:27:01.386Z,1.20
2023-03-27T18:29:30.863Z,1.43
2023-03-27T18:31:59.289Z,1.43
2023-03-27T18:34:27.767Z,1.40
2023-03-27T18:36:57.268Z,1.43
2023-03-27T18:39:25.661Z,1.33
2023-03-27T18:41:54.844Z,1.60
2023-03-27T18:44:23.023Z,1.23
2023-03-27T18:46:51.208Z,1.60
2023-03-27T18:49:24.879Z,1.20
2023-03-27T18:51:53.572Z,1.60
2023-03-27T18:54:23.225Z,1.40
2023-03-27T18:56:51.957Z,1.30
2023-03-27T18:59:20.852Z,1.60
2023-03-27T19:01:49.233Z,1.37
2023-03-27T19:04:18.834Z,1.47
2023-03-27T19:06:47.319Z,1.30
2023-03-27T19:09:15.527Z,1.50
2023-03-27T19:11:45.054Z,1.40
2023-03-27T19:14:13.272Z,2.00
2023-03-27T19:16:42.174Z,1.60
2023-03-27T19:19:11.189Z,1.90
2023-03-27T19:21:39.381Z,1.67
2023-03-27T19:24:08.501Z,1.53
2023-03-27T19:26:37.214Z,1.70
2023-03-27T19:29:07.424Z,1.47
2023-03-27T19:31:36.071Z,1.57
2023-03-27T19:34:04.444Z,1.60
2023-03-27T19:36:33.226Z,1.60
2023-03-27T19:39:01.717Z,1.40
2023-03-27T19:41:29.918Z,1.20
2023-03-27T19:44:00.238Z,1.43
2023-03-27T19:46:30.120Z,1.40
2023-03-27T19:48:58.344Z,1.60
2023-03-27T19:51:26.524Z,1.70
2023-03-27T19:53:55.390Z,1.77
2023-03-27T19:56:23.625Z,1.37
2023-03-27T19:58:52.163Z,1.70
2023-03-27T20:01:21.390Z,1.73
2023-03-27T20:03:50.965Z,1.37
2023-03-27T20:06:20.401Z,1.50
2023-03-27T20:08:48.566Z,1.20
2023-03-27T20:11:16.752Z,1.53
2023-03-27T20:13:55.316Z,1.17
2023-03-27T20:16:25.160Z,1.50
2023-03-27T20:19:04.307Z,1.50
2023-03-27T20:21:33.676Z,1.30
2023-03-27T20:24:01.903Z,1.50
2023-03-27T20:26:32.388Z,1.10
2023-03-27T20:29:00.573Z,1.60
2023-03-27T20:31:28.833Z,1.80
2023-03-27T20:33:58.442Z,1.50
2023-03-27T20:36:26.607Z,1.47
2023-03-27T20:38:56.361Z,1.23
2023-03-27T20:41:27.107Z,1.60
2023-03-27T20:43:55.389Z,1.50
2023-03-27T20:46:23.614Z,1.60
2023-03-27T20:48:54.904Z,1.70
2023-03-27T20:51:25.179Z,1.90
2023-03-27T20:53:55.445Z,1.67
2023-03-27T20:56:23.956Z,1.40
2023-03-27T20:58:52.518Z,1.93
2023-03-27T21:01:20.950Z,2.07
2023-03-27T21:03:49.560Z,2.07
2023-03-27T21:06:19.683Z,1.90
2023-03-27T21:08:49.593Z,2.00
2023-03-27T21:11:17.842Z,2.57
2023-03-27T21:13:46.204Z,2.57
2023-03-27T21:16:14.469Z,2.17
2023-03-27T21:18:42.801Z,2.17
2023-03-27T21:21:11.046Z,1.90
2023-03-27T21:23:39.763Z,2.03
2023-03-27T21:26:09.582Z,2.50
2023-03-27T21:28:37.757Z,1.90
2023-03-27T21:31:07.588Z,2.20
2023-03-27T21:33:36.018Z,2.83
2023-03-27T21:36:04.403Z,2.00
2023-03-27T21:38:32.620Z,2.47
2023-03-27T21:41:02.761Z,2.37
2023-03-27T21:43:32.320Z,2.40
2023-03-27T21:46:01.961Z,2.17
2023-03-27T21:48:30.495Z,2.30
2023-03-27T21:51:02.064Z,2.57
2023-03-27T21:53:30.417Z,2.50
2023-03-27T21:55:59.008Z,2.03
2023-03-27T21:58:27.703Z,2.30
2023-03-27T22:00:58.683Z,2.10
2023-03-27T22:03:27.277Z,2.67
2023-03-27T22:06:10.232Z,1.90
2023-03-27T22:08:40.043Z,2.10
2023-03-27T22:11:08.408Z,2.20
2023-03-27T22:13:37.148Z,1.90
2023-03-27T22:16:10.174Z,2.63
2023-03-27T22:18:39.493Z,2.13
2023-03-27T22:21:15.286Z,2.30
2023-03-27T22:23:43.579Z,2.40
2023-03-27T22:26:11.774Z,2.43
2023-03-27T22:28:39.992Z,2.03
2023-03-27T22:31:09.813Z,2.00
2023-03-27T22:33:38.219Z,1.60
2023-03-27T22:36:07.171Z,2.23
2023-03-27T22:38:35.377Z,1.80
2023-03-27T22:41:05.950Z,2.13
2023-03-27T22:43:34.318Z,1.87
2023-03-27T22:46:05.879Z,2.10
2023-03-27T22:48:35.776Z,2.40
2023-03-27T22:51:04.009Z,2.27
2023-03-27T22:53:32.716Z,2.47
2023-03-27T22:56:01.997Z,2.43
2023-03-27T22:58:32.284Z,1.93
2023-03-27T23:01:00.493Z,2.00
2023-03-27T23:03:28.959Z,2.00
2023-03-27T23:05:58.889Z,1.80
2023-03-27T23:08:28.203Z,2.13
2023-03-27T23:10:57.160Z,2.37
2023-03-27T23:13:25.461Z,1.97
2023-03-27T23:15:53.873Z,1.80
2023-03-27T23:18:24.448Z,2.47
2023-03-27T23:20:56.116Z,1.90
2023-03-27T23:23:26.292Z,2.03
2023-03-27T23:25:54.519Z,2.60
2023-03-27T23:28:22.794Z,1.87
2023-03-27T23:30:54.133Z,1.90
2023-03-27T23:33:24.795Z,2.23
2023-03-27T23:35:53.118Z,2.00
2023-03-27T23:38:21.282Z,2.17
2023-03-27T23:40:55.531Z,2.03
2023-03-27T23:43:23.852Z,2.23
2023-03-27T23:45:52.228Z,2.03
2023-03-27T23:48:20.601Z,2.00
2023-03-27T23:50:48.956Z,2.00
2023-03-27T23:53:17.156Z,2.30
2023-03-27T23:55:45.610Z,1.80
2023-03-27T23:58:15.101Z,2.40
